createdAt,value
2015-02-17T15:52:44.115Z,21.4
2015-02-17T15:53:02.133Z,21
2015-02-17T15:53:20.445Z,20.5
2015-02-17T15:53:38.758Z,20.2
2015-02-17T15:53:57.229Z,20
2015-02-17T16:14:45.901Z,19.4
2015-02-17T16:15:04.229Z,19.5
2015-02-17T16:15:21.888Z,19.6
2015-02-17T16:15:40.216Z,19.6
2015-02-17T16:15:58.669Z,19.7
2015-02-17T16:16:16.982Z,19.7
2015-02-17T16:16:34.656Z,19.8
2015-02-17T16:16:52.984Z,19.8
2015-02-17T16:17:11.296Z,19.8
2015-02-17T16:17:29.627Z,19.8
2015-02-17T16:17:47.940Z,19.8
2015-02-17T16:18:06.268Z,19.9
2015-02-17T16:18:24.580Z,19.9
2015-02-17T16:18:42.911Z,19.9
2015-02-17T16:19:01.223Z,19.9
2015-02-17T16:19:19.551Z,19.9
2015-02-17T16:19:37.867Z,19.8
2015-02-17T16:19:56.195Z,19.8
2015-02-17T16:20:14.507Z,19.8
2015-02-17T16:20:32.820Z,19.8
2015-02-17T16:20:51.150Z,19.8
2015-02-17T16:21:09.462Z,19.8
2015-02-17T16:21:27.791Z,19.8
2015-02-17T16:21:46.152Z,19.8
2015-02-17T16:22:03.902Z,19.8
2015-02-17T16:22:21.574Z,19.8
2015-02-17T16:22:39.902Z,19.7
2015-02-17T16:22:58.217Z,19.7
2015-02-17T16:23:16.530Z,19.7
2015-02-17T16:23:34.858Z,19.7
2015-02-17T16:23:52.532Z,19.7
2015-02-17T16:24:10.844Z,19.7
2015-02-17T16:24:29.173Z,19.7
2015-02-17T16:24:46.844Z,19.7
2015-02-17T16:25:05.176Z,19.7
2015-02-17T16:25:23.488Z,19.7
2015-02-17T16:25:41.816Z,19.7
2015-02-17T16:26:00.132Z,19.7
2015-02-17T16:26:18.444Z,19.7
2015-02-17T16:26:36.772Z,19.7
2015-02-17T16:26:55.085Z,19.7
2015-02-17T16:27:13.414Z,19.7
2015-02-17T16:27:31.070Z,19.7
2015-02-17T16:27:48.726Z,19.7
2015-02-17T16:28:06.401Z,19.7
2015-02-17T16:28:24.729Z,19.7
2015-02-17T16:28:42.386Z,19.7
2015-02-17T16:29:00.714Z,19.7
2015-02-17T16:29:19.028Z,19.7
2015-02-17T16:29:37.356Z,19.7
2015-02-17T16:29:55.669Z,19.7
2015-02-17T16:30:14.000Z,19.7
2015-02-17T16:30:32.313Z,19.7
2015-02-17T16:30:50.641Z,19.7
2015-02-17T16:31:08.969Z,19.7
2015-02-17T16:31:27.284Z,19.7
2015-02-17T16:31:45.612Z,19.7
2015-02-17T16:32:03.925Z,19.7
2015-02-17T16:32:22.255Z,19.7
2015-02-17T16:32:40.568Z,19.7
2015-02-17T16:32:58.896Z,19.7
2015-02-17T16:33:17.208Z,19.7
2015-02-17T16:33:35.523Z,19.7
2015-02-17T16:33:53.195Z,19.7
2015-02-17T16:34:11.523Z,19.7
2015-02-17T16:34:29.838Z,19.7
2015-02-17T16:34:48.166Z,19.7
2015-02-17T16:35:06.619Z,19.7
2015-02-17T16:35:24.932Z,19.7
2015-02-17T16:35:42.606Z,19.7
2015-02-17T16:36:00.934Z,19.7
2015-02-17T16:36:19.246Z,19.7
2015-02-17T16:36:37.578Z,19.7
2015-02-17T16:36:55.890Z,19.7
2015-02-17T16:37:14.218Z,19.7
2015-02-17T16:37:32.531Z,19.7
2015-02-17T16:37:50.845Z,19.7
2015-02-17T16:38:09.173Z,19.7
2015-02-17T16:38:26.189Z,19.7
2015-02-17T16:38:44.520Z,19.7
2015-02-17T16:39:02.833Z,19.7
2015-02-17T16:39:21.161Z,19.7
2015-02-17T16:39:38.817Z,19.6
2015-02-17T16:39:56.492Z,19.7
2015-02-17T16:40:14.164Z,19.6
2015-02-17T16:40:31.820Z,19.7
2015-02-17T16:40:50.149Z,19.6
2015-02-17T16:41:08.477Z,19.7
2015-02-17T16:41:26.790Z,19.7
2015-02-17T16:41:45.118Z,19.7
2015-02-17T16:42:02.777Z,19.6
2015-02-17T16:42:21.090Z,19.6
2015-02-17T16:42:38.761Z,19.6
2015-02-17T16:42:57.093Z,19.6
2015-02-17T16:43:14.764Z,19.7
2015-02-17T16:43:33.077Z,19.7
2015-02-17T16:43:51.405Z,19.7
2015-02-17T16:44:09.720Z,19.7
2015-02-17T16:44:28.048Z,19.7
2015-02-17T16:44:46.376Z,19.7
2015-02-17T16:45:04.690Z,19.7
2015-02-17T16:45:23.018Z,19.7
2015-02-17T16:45:41.331Z,19.7
2015-02-17T16:45:59.659Z,19.7
2015-02-17T16:46:17.990Z,19.6
2015-02-17T16:46:36.318Z,19.6
2015-02-17T16:46:54.631Z,19.6
2015-02-17T16:47:12.961Z,19.6
2015-02-17T16:47:31.273Z,19.6
2015-02-17T16:47:48.945Z,19.7
2015-02-17T16:48:07.258Z,19.6
2015-02-17T16:48:24.933Z,19.6
2015-02-17T16:48:43.261Z,19.6
2015-02-17T16:49:01.589Z,19.6
2015-02-17T16:49:19.903Z,19.6
2015-02-17T16:49:38.216Z,19.6
2015-02-17T16:49:56.669Z,19.6
2015-02-17T16:50:14.997Z,19.6
2015-02-17T16:50:33.328Z,19.6
2015-02-17T16:50:51.641Z,19.6
2015-02-17T16:51:10.094Z,19.6
2015-02-17T16:51:28.408Z,19.6
2015-02-17T16:51:46.737Z,19.6
2015-02-17T16:52:05.049Z,19.6
2015-02-17T16:52:23.377Z,19.6
2015-02-17T16:52:41.832Z,19.6
2015-02-17T16:53:00.285Z,19.6
2015-02-17T16:53:18.598Z,19.6
2015-02-17T16:53:36.929Z,19.6
2015-02-17T16:53:55.242Z,19.6
2015-02-17T16:54:13.695Z,19.6
2015-02-17T16:54:32.023Z,19.6
2015-02-17T16:54:50.337Z,19.6
2015-02-17T16:55:08.665Z,19.6
2015-02-17T16:55:26.978Z,19.6
2015-02-17T16:55:45.293Z,19.6
2015-02-17T16:56:03.622Z,19.6
2015-02-17T16:56:21.934Z,19.6
2015-02-17T16:56:40.262Z,19.6
2015-02-17T16:56:58.577Z,19.6
2015-02-17T16:57:16.905Z,19.6
2015-02-17T16:57:35.217Z,19.6
2015-02-17T16:57:53.563Z,19.6
2015-02-17T16:58:11.860Z,19.5
2015-02-17T16:58:30.188Z,19.5
2015-02-17T16:58:48.501Z,19.5
2015-02-17T16:59:06.833Z,19.5
2015-02-17T16:59:25.145Z,19.5
2015-02-17T16:59:43.473Z,19.5
2015-02-17T17:00:01.787Z,19.5
2015-02-17T17:00:20.115Z,19.5
2015-02-17T17:00:38.427Z,19.5
2015-02-17T17:00:56.756Z,19.5
2015-02-17T17:01:15.071Z,19.5
2015-02-17T17:01:33.399Z,19.5
2015-02-17T17:01:51.727Z,19.5
2015-02-17T17:02:10.042Z,19.5
2015-02-17T17:02:28.354Z,19.5
2015-02-17T17:02:46.682Z,19.5
2015-02-17T17:03:04.995Z,19.5
2015-02-17T17:03:23.326Z,19.5
2015-02-17T17:03:41.639Z,19.5
2015-02-17T17:03:59.967Z,19.5
2015-02-17T17:04:18.282Z,19.5
2015-02-17T17:04:36.610Z,19.5
2015-02-17T17:04:54.923Z,19.5
2015-02-17T17:05:12.595Z,19.5
2015-02-17T17:05:30.909Z,19.5
2015-02-17T17:05:49.222Z,19.5
2015-02-17T17:06:07.550Z,19.5
2015-02-17T17:06:26.005Z,19.5
2015-02-17T17:06:44.317Z,19.5
2015-02-17T17:07:02.646Z,19.5
2015-02-17T17:07:20.958Z,19.5
2015-02-17T17:07:39.414Z,19.5
2015-02-17T17:07:57.727Z,19.5
2015-02-17T17:08:16.039Z,19.5
2015-02-17T17:08:33.713Z,19.5
2015-02-17T17:08:52.026Z,19.5
2015-02-17T17:09:10.354Z,19.5
2015-02-17T17:09:28.666Z,19.5
2015-02-17T17:09:46.982Z,19.5
2015-02-17T17:10:05.310Z,19.5
2015-02-17T17:10:23.622Z,19.5
2015-02-17T17:10:41.953Z,19.5
2015-02-17T17:11:00.266Z,19.5
2015-02-17T17:11:18.594Z,19.5
2015-02-17T17:11:36.907Z,19.5
2015-02-17T17:11:55.252Z,19.5
2015-02-17T17:12:13.549Z,19.5
2015-02-17T17:12:31.862Z,19.5
2015-02-17T17:12:50.192Z,19.5
2015-02-17T17:13:08.504Z,19.5
2015-02-17T17:13:26.832Z,19.5
2015-02-17T17:13:45.145Z,19.5
2015-02-17T17:14:03.459Z,19.5
2015-02-17T17:14:21.788Z,19.5
2015-02-17T17:14:40.116Z,19.5
2015-02-17T17:14:58.462Z,19.5
2015-02-17T17:15:16.087Z,19.5
2015-02-17T17:15:34.416Z,19.5
2015-02-17T17:15:52.728Z,19.5
2015-02-17T17:16:10.402Z,19.5
2015-02-17T17:16:28.058Z,19.5
2015-02-17T17:16:45.730Z,19.5
2015-02-17T17:17:04.061Z,19.5
2015-02-17T17:17:22.374Z,19.5
2015-02-17T17:17:40.827Z,19.5
2015-02-17T17:17:59.139Z,19.5
2015-02-17T17:18:17.470Z,19.5
2015-02-17T17:18:35.799Z,19.5
2015-02-17T17:18:54.111Z,19.5
2015-02-17T17:19:12.426Z,19.5
2015-02-17T17:19:30.754Z,19.5
2015-02-17T17:19:49.066Z,19.5
2015-02-17T17:20:07.394Z,19.5
2015-02-17T17:20:25.710Z,19.5
2015-02-17T17:20:43.382Z,19.5
2015-02-17T17:21:01.694Z,19.5
2015-02-17T17:21:19.352Z,19.5
2015-02-17T17:21:37.681Z,19.5
2015-02-17T17:21:56.009Z,19.5
2015-02-17T17:22:14.321Z,19.5
2015-02-17T17:22:31.995Z,19.5
2015-02-17T17:22:50.308Z,19.5
2015-02-17T17:23:08.620Z,19.5
2015-02-17T17:23:26.950Z,19.5
2015-02-17T17:23:45.263Z,19.5
2015-02-17T17:24:03.591Z,19.5
2015-02-17T17:24:21.903Z,19.5
2015-02-17T17:24:40.219Z,19.5
2015-02-17T17:24:58.547Z,19.5
2015-02-17T17:25:16.875Z,19.5
2015-02-17T17:25:35.190Z,19.5
2015-02-17T17:25:53.502Z,19.5
2015-02-17T17:26:11.830Z,19.5
2015-02-17T17:26:30.146Z,19.5
2015-02-17T17:26:48.458Z,19.5
2015-02-17T17:27:06.786Z,19.5
2015-02-17T17:27:25.241Z,19.5
2015-02-17T17:27:43.554Z,19.5
2015-02-17T17:28:01.866Z,19.5
2015-02-17T17:28:19.538Z,19.5
2015-02-17T17:28:37.853Z,19.5
2015-02-17T17:28:56.181Z,19.5
2015-02-17T17:29:13.853Z,19.5
2015-02-17T17:29:32.168Z,19.5
2015-02-17T17:29:50.496Z,19.5
2015-02-17T17:30:08.809Z,19.5
2015-02-17T17:30:27.139Z,19.5
2015-02-17T17:30:44.936Z,19.5
2015-02-17T17:31:03.248Z,19.5
2015-02-17T17:31:21.577Z,19.5
2015-02-17T17:31:39.892Z,19.5
2015-02-17T17:31:58.220Z,19.5
2015-02-17T17:32:16.533Z,19.5
2015-02-17T17:32:34.207Z,19.5
2015-02-17T17:32:52.519Z,19.5
2015-02-17T17:33:10.847Z,19.5
2015-02-17T17:33:29.160Z,19.5
2015-02-17T17:33:46.834Z,19.5
2015-02-17T17:34:05.146Z,19.5
2015-02-17T17:34:23.459Z,19.5
2015-02-17T17:34:41.790Z,19.5
2015-02-17T17:35:00.118Z,19.5
2015-02-17T17:35:17.790Z,19.5
2015-02-17T17:35:36.102Z,19.5
2015-02-17T17:35:54.557Z,19.5
2015-02-17T17:36:12.885Z,19.5
2015-02-17T17:36:31.198Z,19.5
2015-02-17T17:36:49.513Z,19.5
2015-02-17T17:37:07.185Z,19.5
2015-02-17T17:37:25.498Z,19.5
2015-02-17T17:37:43.826Z,19.5
2015-02-17T17:38:02.156Z,19.5
2015-02-17T17:38:20.469Z,19.5
2015-02-17T17:38:38.781Z,19.5
2015-02-17T17:38:57.236Z,19.5
2015-02-17T17:39:15.549Z,19.5
2015-02-17T17:39:33.877Z,19.5
2015-02-17T17:39:52.205Z,19.5
2015-02-17T17:40:10.520Z,19.5
2015-02-17T17:40:28.833Z,19.5
2015-02-17T17:40:47.161Z,19.5
2015-02-17T17:41:05.477Z,19.5
2015-02-17T17:41:23.805Z,19.5
2015-02-17T17:41:40.945Z,19.5
2015-02-17T17:41:59.258Z,19.5
2015-02-17T17:42:17.571Z,19.5
2015-02-17T17:42:36.024Z,19.5
2015-02-17T17:42:54.353Z,19.5
2015-02-17T17:43:12.668Z,19.5
2015-02-17T17:43:30.996Z,19.5
2015-02-17T17:43:49.309Z,19.5
2015-02-17T17:44:07.637Z,19.5
2015-02-17T17:44:25.951Z,19.5
2015-02-17T17:44:44.279Z,19.5
2015-02-17T17:45:02.592Z,19.5
2015-02-17T17:45:20.907Z,19.5
2015-02-17T17:45:39.236Z,19.5
2015-02-17T17:45:56.907Z,19.5
2015-02-17T17:46:15.220Z,19.5
2015-02-17T17:46:33.550Z,19.5
2015-02-17T17:46:51.863Z,19.5
2015-02-17T17:47:10.191Z,19.5
2015-02-17T17:47:28.506Z,19.5
2015-02-17T17:47:46.819Z,19.5
2015-02-17T17:48:05.147Z,19.5
2015-02-17T17:48:22.819Z,19.5
2015-02-17T17:48:41.133Z,19.5
2015-02-17T17:48:59.461Z,19.5
2015-02-17T17:49:17.774Z,19.5
2015-02-17T17:49:36.105Z,19.5
2015-02-17T17:49:53.777Z,19.5
2015-02-17T17:50:12.105Z,19.5
2015-02-17T17:50:30.417Z,19.5
2015-02-17T17:50:48.749Z,19.5
2015-02-17T17:51:07.061Z,19.5
2015-02-17T17:51:25.405Z,19.5
2015-02-17T17:51:43.704Z,19.5
2015-02-17T17:52:02.032Z,19.5
2015-02-17T17:52:20.360Z,19.5
2015-02-17T17:52:38.672Z,19.5
2015-02-17T17:52:57.004Z,19.5
2015-02-17T17:53:15.316Z,19.5
2015-02-17T17:53:33.644Z,19.5
2015-02-17T17:53:51.959Z,19.5
2015-02-17T17:54:10.271Z,19.5
2015-02-17T17:54:28.599Z,19.5
2015-02-17T17:54:47.037Z,19.5
2015-02-17T17:55:05.367Z,19.5
2015-02-17T17:55:23.679Z,19.5
2015-02-17T17:55:42.008Z,19.5
2015-02-17T17:56:00.323Z,19.5
2015-02-17T17:56:18.651Z,19.5
2015-02-17T17:56:36.964Z,19.5
2015-02-17T17:56:55.276Z,19.5
2015-02-17T17:57:13.606Z,19.5
2015-02-17T17:57:31.919Z,19.5
2015-02-17T17:57:50.247Z,19.5
2015-02-17T17:58:07.906Z,19.5
2015-02-17T17:58:25.578Z,19.5
2015-02-17T17:58:43.906Z,19.5
2015-02-17T17:59:02.234Z,19.5
2015-02-17T17:59:20.533Z,19.5
2015-02-17T17:59:38.861Z,19.5
2015-02-17T17:59:57.174Z,19.5
2015-02-17T18:00:15.505Z,19.5
2015-02-17T18:00:33.817Z,19.5
2015-02-17T18:00:50.833Z,19.5
2015-02-17T18:01:09.302Z,19.5
2015-02-17T18:01:26.944Z,19.5
2015-02-17T18:01:44.616Z,19.5
2015-02-17T18:02:02.929Z,19.5
2015-02-17T18:02:21.259Z,19.5
2015-02-17T18:02:39.571Z,19.5
2015-02-17T18:02:57.900Z,19.5
2015-02-17T18:03:16.212Z,19.5
2015-02-17T18:03:34.543Z,19.5
2015-02-17T18:03:52.856Z,19.5
2015-02-17T18:04:11.184Z,19.5
2015-02-17T18:04:29.498Z,19.5
2015-02-17T18:04:47.811Z,19.5
2015-02-17T18:05:06.139Z,19.5
2015-02-17T18:05:24.451Z,19.5
2015-02-17T18:05:42.783Z,19.5
2015-02-17T18:06:01.095Z,19.5
2015-02-17T18:06:19.423Z,19.5
2015-02-17T18:06:37.739Z,19.5
2015-02-17T18:06:56.067Z,19.5
2015-02-17T18:07:14.379Z,19.5
2015-02-17T18:07:32.051Z,19.5
2015-02-17T18:07:50.506Z,19.5
2015-02-17T18:08:08.959Z,19.5
2015-02-17T18:08:27.272Z,19.5
2015-02-17T18:08:45.727Z,19.5
2015-02-17T18:09:03.383Z,19.5
2015-02-17T18:09:21.711Z,19.5
2015-02-17T18:09:40.024Z,19.5
2015-02-17T18:09:58.354Z,19.5
2015-02-17T18:10:16.667Z,19.5
2015-02-17T18:10:34.323Z,19.5
2015-02-17T18:10:52.779Z,19.5
2015-02-17T18:11:10.451Z,19.5
2015-02-17T18:11:28.779Z,19.5
2015-02-17T18:11:47.091Z,19.5
2015-02-17T18:12:05.422Z,19.5
2015-02-17T18:12:23.734Z,19.5
2015-02-17T18:12:41.390Z,19.5
2015-02-17T18:12:59.721Z,19.5
2015-02-17T18:13:18.034Z,19.5
2015-02-17T18:13:36.346Z,19.5
2015-02-17T18:13:54.675Z,19.5
2015-02-17T18:14:13.006Z,19.5
2015-02-17T18:14:31.318Z,19.5
2015-02-17T18:14:49.646Z,19.5
2015-02-17T18:15:07.960Z,19.5
2015-02-17T18:15:26.288Z,19.5
2015-02-17T18:15:44.616Z,19.5
2015-02-17T18:16:02.929Z,19.5
2015-02-17T18:16:21.261Z,19.5
2015-02-17T18:16:39.573Z,19.5
2015-02-17T18:16:57.901Z,19.5
2015-02-17T18:17:16.215Z,19.5
2015-02-17T18:17:34.527Z,19.5
2015-02-17T18:17:52.855Z,19.5
2015-02-17T18:18:11.184Z,19.5
2015-02-17T18:18:29.500Z,19.5
2015-02-17T18:18:47.813Z,19.5
2015-02-17T18:19:06.141Z,19.5
2015-02-17T18:19:24.455Z,19.5
2015-02-17T18:19:42.783Z,19.5
2015-02-17T18:20:01.096Z,19.5
2015-02-17T18:20:19.424Z,19.5
2015-02-17T18:20:37.738Z,19.5
2015-02-17T18:20:56.067Z,19.5
2015-02-17T18:21:14.379Z,19.5
2015-02-17T18:21:32.835Z,19.5
2015-02-17T18:21:51.163Z,19.5
2015-02-17T18:22:09.476Z,19.5
2015-02-17T18:22:27.788Z,19.5
2015-02-17T18:22:46.118Z,19.5
2015-02-17T18:23:04.431Z,19.5
2015-02-17T18:23:22.759Z,19.5
2015-02-17T18:23:41.214Z,19.5
2015-02-17T18:23:58.870Z,19.5
2015-02-17T18:24:17.199Z,19.5
2015-02-17T18:24:35.511Z,19.5
2015-02-17T18:24:53.842Z,19.5
2015-02-17T18:25:12.155Z,19.5
2015-02-17T18:25:30.483Z,19.5
2015-02-17T18:25:48.938Z,19.5
2015-02-17T18:26:07.250Z,19.5
2015-02-17T18:26:25.563Z,19.5
2015-02-17T18:26:43.875Z,19.5
2015-02-17T18:27:02.207Z,19.5
2015-02-17T18:27:20.519Z,19.5
2015-02-17T18:27:38.847Z,19.5
2015-02-17T18:27:57.163Z,19.5
2015-02-17T18:28:15.491Z,19.5
2015-02-17T18:28:33.803Z,19.5
2015-02-17T18:28:52.116Z,19.5
2015-02-17T18:29:10.445Z,19.5
2015-02-17T18:29:28.757Z,19.5
2015-02-17T18:29:47.086Z,19.5
2015-02-17T18:30:05.401Z,19.5
2015-02-17T18:30:23.729Z,19.5
2015-02-17T18:30:42.042Z,19.5
2015-02-17T18:30:59.714Z,19.5
2015-02-17T18:31:18.029Z,19.5
2015-02-17T18:31:36.357Z,19.5
2015-02-17T18:31:54.670Z,19.5
2015-02-17T18:32:13.000Z,19.5
2015-02-17T18:32:31.312Z,19.5
2015-02-17T18:32:49.640Z,19.5
2015-02-17T18:33:07.969Z,19.5
2015-02-17T18:33:26.283Z,19.5
2015-02-17T18:33:44.596Z,19.5
2015-02-17T18:34:02.924Z,19.5
2015-02-17T18:34:21.239Z,19.5
2015-02-17T18:34:39.567Z,19.5
2015-02-17T18:34:57.895Z,19.5
2015-02-17T18:35:16.208Z,19.5
2015-02-17T18:35:34.522Z,19.5
2015-02-17T18:35:52.194Z,19.5
2015-02-17T18:36:10.522Z,19.5
2015-02-17T18:36:28.885Z,19.5
2015-02-17T18:36:47.182Z,19.5
2015-02-17T18:37:05.510Z,19.5
2015-02-17T18:37:23.822Z,19.5
2015-02-17T18:37:41.496Z,19.5
2015-02-17T18:37:59.152Z,19.5
2015-02-17T18:38:17.481Z,19.5
2015-02-17T18:38:35.155Z,19.5
2015-02-17T18:38:53.468Z,19.5
2015-02-17T18:39:11.780Z,19.5
2015-02-17T18:39:29.437Z,19.5
2015-02-17T18:39:47.751Z,19.5
2015-02-17T18:40:06.079Z,19.5
2015-02-17T18:40:24.392Z,19.5
2015-02-17T18:40:42.722Z,19.5
2015-02-17T18:41:01.034Z,19.5
2015-02-17T18:41:19.347Z,19.5
2015-02-17T18:41:37.659Z,19.5
2015-02-17T18:41:55.991Z,19.5
2015-02-17T18:42:14.303Z,19.5
2015-02-17T18:42:32.631Z,19.5
2015-02-17T18:42:50.947Z,19.5
2015-02-17T18:43:09.275Z,19.4
2015-02-17T18:43:27.587Z,19.5
2015-02-17T18:43:45.900Z,19.5
2015-02-17T18:44:04.230Z,19.4
2015-02-17T18:44:22.542Z,19.5
2015-02-17T18:44:40.871Z,19.5
2015-02-17T18:44:59.185Z,19.4
2015-02-17T18:45:17.513Z,19.4
2015-02-17T18:45:35.826Z,19.5
2015-02-17T18:45:54.154Z,19.5
2015-02-17T18:46:11.813Z,19.5
2015-02-17T18:46:30.126Z,19.5
2015-02-17T18:46:47.797Z,19.5
2015-02-17T18:47:06.112Z,19.4
2015-02-17T18:47:24.440Z,19.4
2015-02-17T18:47:42.753Z,19.4
2015-02-17T18:48:01.081Z,19.5
2015-02-17T18:48:18.739Z,19.5
2015-02-17T18:48:36.411Z,19.5
2015-02-17T18:48:54.739Z,19.5
2015-02-17T18:49:13.055Z,19.4
2015-02-17T18:49:31.368Z,19.4
2015-02-17T18:49:49.680Z,19.5
2015-02-17T18:50:07.352Z,19.5
2015-02-17T18:50:25.682Z,19.5
2015-02-17T18:50:43.995Z,19.4
2015-02-17T18:51:02.323Z,19.5
2015-02-17T18:51:20.639Z,19.5
2015-02-17T18:51:38.967Z,19.5
2015-02-17T18:51:57.279Z,19.5
2015-02-17T18:52:15.592Z,19.5
2015-02-17T18:52:33.921Z,19.5
2015-02-17T18:52:52.233Z,19.5
2015-02-17T18:53:10.561Z,19.5
2015-02-17T18:53:28.877Z,19.5
2015-02-17T18:53:46.549Z,19.5
2015-02-17T18:54:04.861Z,19.5
2015-02-17T18:54:23.174Z,19.5
2015-02-17T18:54:41.504Z,19.5
2015-02-17T18:54:59.816Z,19.5
2015-02-17T18:55:18.145Z,19.5
2015-02-17T18:55:36.460Z,19.5
2015-02-17T18:55:54.257Z,19.5
2015-02-17T18:56:12.569Z,19.5
2015-02-17T18:56:30.898Z,19.5
2015-02-17T18:56:49.229Z,19.5
2015-02-17T18:57:07.526Z,19.5
2015-02-17T18:57:25.838Z,19.5
2015-02-17T18:57:44.168Z,19.5
2015-02-17T18:58:01.965Z,19.5
2015-02-17T18:58:19.637Z,19.5
2015-02-17T18:58:37.951Z,19.5
2015-02-17T18:58:55.608Z,19.5
2015-02-17T18:59:13.936Z,19.5
2015-02-17T18:59:32.264Z,19.5
2015-02-17T18:59:49.954Z,19.5
2015-02-17T19:00:08.251Z,19.5
2015-02-17T19:00:26.564Z,19.5
2015-02-17T19:00:44.894Z,19.4
2015-02-17T19:01:03.222Z,19.5
2015-02-17T19:01:21.535Z,19.5
2015-02-17T19:01:39.863Z,19.4
2015-02-17T19:01:58.177Z,19.5
2015-02-17T19:02:16.490Z,19.5
2015-02-17T19:02:34.818Z,19.5
2015-02-17T19:02:53.133Z,19.5
2015-02-17T19:03:11.461Z,19.4
2015-02-17T19:03:29.774Z,19.4
2015-02-17T19:03:47.446Z,19.4
2015-02-17T19:04:05.760Z,19.5
2015-02-17T19:04:23.432Z,19.4
2015-02-17T19:04:41.745Z,19.4
2015-02-17T19:05:00.075Z,19.4
2015-02-17T19:05:18.387Z,19.5
2015-02-17T19:05:36.715Z,19.4
2015-02-17T19:05:55.028Z,19.4
2015-02-17T19:06:13.359Z,19.5
2015-02-17T19:06:31.031Z,19.4
2015-02-17T19:06:49.343Z,19.5
2015-02-17T19:07:06.361Z,19.4
2015-02-17T19:07:24.689Z,19.4
2015-02-17T19:07:42.345Z,19.4
2015-02-17T19:08:00.017Z,19.4
2015-02-17T19:08:18.348Z,19.4
2015-02-17T19:08:36.661Z,19.4
2015-02-17T19:08:54.989Z,19.4
2015-02-17T19:09:13.305Z,19.4
2015-02-17T19:09:30.961Z,19.4
2015-02-17T19:09:49.289Z,19.4
2015-02-17T19:10:07.601Z,19.4
2015-02-17T19:10:25.932Z,19.4
2015-02-17T19:10:44.244Z,19.4
2015-02-17T19:11:02.557Z,19.4
2015-02-17T19:11:20.887Z,19.4
2015-02-17T19:11:38.543Z,19.4
2015-02-17T19:11:56.871Z,19.4
2015-02-17T19:12:15.184Z,19.4
2015-02-17T19:12:33.499Z,19.4
2015-02-17T19:12:51.827Z,19.5
2015-02-17T19:13:10.140Z,19.5
2015-02-17T19:13:28.470Z,19.5
2015-02-17T19:13:46.782Z,19.4
2015-02-17T19:14:05.110Z,19.5
2015-02-17T19:14:23.423Z,19.4
2015-02-17T19:14:41.097Z,19.4
2015-02-17T19:14:59.425Z,19.5
2015-02-17T19:15:17.737Z,19.4
2015-02-17T19:15:36.053Z,19.4
2015-02-17T19:15:54.381Z,19.5
2015-02-17T19:16:12.694Z,19.4
2015-02-17T19:16:31.022Z,19.4
2015-02-17T19:16:48.697Z,19.5
2015-02-17T19:17:07.009Z,19.5
2015-02-17T19:17:25.462Z,19.5
2015-02-17T19:17:43.777Z,19.5
2015-02-17T19:18:02.105Z,19.4
2015-02-17T19:18:20.417Z,19.5
2015-02-17T19:18:38.745Z,19.5
2015-02-17T19:18:57.061Z,19.5
2015-02-17T19:19:14.717Z,19.5
2015-02-17T19:19:33.045Z,19.5
2015-02-17T19:19:51.360Z,19.5
2015-02-17T19:20:09.813Z,19.5
2015-02-17T19:20:27.469Z,19.5
2015-02-17T19:20:45.797Z,19.5
2015-02-17T19:21:04.127Z,19.5
2015-02-17T19:21:22.440Z,19.5
2015-02-17T19:21:40.112Z,19.5
2015-02-17T19:21:58.427Z,19.5
2015-02-17T19:22:16.240Z,19.5
2015-02-17T19:22:34.552Z,19.5
2015-02-17T19:22:52.880Z,19.5
2015-02-17T19:23:11.195Z,19.5
2015-02-17T19:23:29.648Z,19.5
2015-02-17T19:23:47.961Z,19.5
2015-02-17T19:24:04.994Z,19.5
2015-02-17T19:24:22.650Z,19.5
2015-02-17T19:24:40.963Z,19.5
2015-02-17T19:24:59.291Z,19.5
2015-02-17T19:25:17.606Z,19.5
2015-02-17T19:25:35.934Z,19.5
2015-02-17T19:25:54.262Z,19.5
2015-02-17T19:26:12.577Z,19.5
2015-02-17T19:26:30.889Z,19.5
2015-02-17T19:26:49.218Z,19.5
2015-02-17T19:27:07.530Z,19.5
2015-02-17T19:27:25.861Z,19.5
2015-02-17T19:27:44.189Z,19.5
2015-02-17T19:28:02.502Z,19.5
2015-02-17T19:28:20.817Z,19.5
2015-02-17T19:28:39.145Z,19.5
2015-02-17T19:28:57.458Z,19.5
2015-02-17T19:29:15.770Z,19.5
2015-02-17T19:29:34.101Z,19.4
2015-02-17T19:29:52.413Z,19.5
2015-02-17T19:30:10.085Z,19.5
2015-02-17T19:30:28.400Z,19.5
2015-02-17T19:30:46.729Z,19.5
2015-02-17T19:31:05.041Z,19.5
2015-02-17T19:31:23.369Z,19.5
2015-02-17T19:31:40.387Z,19.5
2015-02-17T19:31:58.699Z,19.5
2015-02-17T19:32:17.027Z,19.5
2015-02-17T19:32:35.342Z,19.5
2015-02-17T19:32:53.014Z,19.5
2015-02-17T19:33:10.670Z,19.5
2015-02-17T19:33:28.998Z,19.5
2015-02-17T19:33:47.314Z,19.5
2015-02-17T19:34:05.642Z,19.5
2015-02-17T19:34:23.954Z,19.5
2015-02-17T19:34:42.269Z,19.5
2015-02-17T19:35:00.597Z,19.5
2015-02-17T19:35:18.909Z,19.4
2015-02-17T19:35:37.238Z,19.4
2015-02-17T19:35:55.553Z,19.4
2015-02-17T19:36:13.459Z,19.4
2015-02-17T19:36:31.537Z,19.4
2015-02-17T19:36:49.868Z,19.4
2015-02-17T19:37:08.211Z,19.4
2015-02-17T19:37:26.508Z,19.4
2015-02-17T19:37:44.821Z,19.4
2015-02-17T19:38:03.151Z,19.5
2015-02-17T19:38:21.479Z,19.4
2015-02-17T19:38:39.791Z,19.4
2015-02-17T19:38:58.123Z,19.4
2015-02-17T19:39:16.435Z,19.4
2015-02-17T19:39:34.748Z,19.4
2015-02-17T19:39:53.076Z,19.4
2015-02-17T19:40:11.390Z,19.4
2015-02-17T19:40:29.718Z,19.5
2015-02-17T19:40:48.031Z,19.5
2015-02-17T19:41:06.346Z,19.5
2015-02-17T19:41:24.659Z,19.5
2015-02-17T19:41:42.987Z,19.4
2015-02-17T19:42:01.315Z,19.5
2015-02-17T19:42:19.630Z,19.5
2015-02-17T19:42:37.942Z,19.5
2015-02-17T19:42:55.614Z,19.5
2015-02-17T19:43:13.929Z,19.5
2015-02-17T19:43:32.242Z,19.5
2015-02-17T19:43:50.554Z,19.5
2015-02-17T19:44:08.226Z,19.5
2015-02-17T19:44:26.556Z,19.5
2015-02-17T19:44:44.213Z,19.5
2015-02-17T19:45:02.572Z,19.5
2015-02-17T19:45:20.856Z,19.5
2015-02-17T19:45:39.184Z,19.5
2015-02-17T19:45:57.497Z,19.5
2015-02-17T19:46:15.825Z,19.5
2015-02-17T19:46:34.140Z,19.4
2015-02-17T19:46:52.452Z,19.5
2015-02-17T19:47:10.124Z,19.4
2015-02-17T19:47:28.454Z,19.4
2015-02-17T19:47:46.907Z,19.4
2015-02-17T19:48:05.360Z,19.4
2015-02-17T19:48:23.673Z,19.4
2015-02-17T19:48:42.004Z,19.4
2015-02-17T19:49:00.316Z,19.4
2015-02-17T19:49:17.988Z,19.4
2015-02-17T19:49:36.303Z,19.4
2015-02-17T19:49:54.647Z,19.4
2015-02-17T19:50:12.959Z,19.4
2015-02-17T19:50:31.272Z,19.4
2015-02-17T19:50:49.603Z,19.4
2015-02-17T19:51:07.915Z,19.4
2015-02-17T19:51:26.243Z,19.4
2015-02-17T19:51:44.573Z,19.4
2015-02-17T19:52:02.886Z,19.4
2015-02-17T19:52:21.214Z,19.4
2015-02-17T19:52:39.527Z,19.4
2015-02-17T19:52:57.842Z,19.4
2015-02-17T19:53:16.170Z,19.5
2015-02-17T19:53:34.483Z,19.4
2015-02-17T19:53:52.813Z,19.5
2015-02-17T19:54:11.141Z,19.4
2015-02-17T19:54:29.485Z,19.5
2015-02-17T19:54:47.766Z,19.5
2015-02-17T19:55:05.565Z,19.5
2015-02-17T19:55:23.237Z,19.5
2015-02-17T19:55:41.549Z,19.5
2015-02-17T19:55:59.208Z,19.4
2015-02-17T19:56:17.537Z,19.4
2015-02-17T19:56:35.849Z,19.4
2015-02-17T19:56:54.318Z,19.4
2015-02-17T19:57:12.633Z,19.5
2015-02-17T19:57:30.946Z,19.5
2015-02-17T19:57:49.274Z,19.4
2015-02-17T19:58:06.932Z,19.5
2015-02-17T19:58:25.260Z,19.4
2015-02-17T19:58:43.573Z,19.4
2015-02-17T19:59:01.901Z,19.4
2015-02-17T19:59:20.215Z,19.4
2015-02-17T19:59:38.544Z,19.4
2015-02-17T19:59:56.856Z,19.5
2015-02-17T20:00:14.518Z,19.4
2015-02-17T20:00:32.831Z,19.5
2015-02-17T20:00:51.159Z,19.4
2015-02-17T20:01:09.471Z,19.4
2015-02-17T20:01:27.157Z,19.4
2015-02-17T20:01:45.485Z,19.4
2015-02-17T20:02:03.798Z,19.5
2015-02-17T20:02:22.140Z,19.5
2015-02-17T20:02:40.453Z,19.5
2015-02-17T20:02:58.765Z,19.5
2015-02-17T20:03:17.093Z,19.5
2015-02-17T20:03:35.419Z,19.5
2015-02-17T20:03:53.747Z,19.5
2015-02-17T20:04:12.059Z,19.5
2015-02-17T20:04:30.402Z,19.5
2015-02-17T20:04:48.715Z,19.5
2015-02-17T20:05:07.043Z,19.5
2015-02-17T20:05:25.356Z,19.5
2015-02-17T20:05:43.693Z,19.4
2015-02-17T20:06:02.005Z,19.5
2015-02-17T20:06:20.333Z,19.5
2015-02-17T20:06:38.652Z,19.5
2015-02-17T20:06:56.964Z,19.4
2015-02-17T20:07:15.292Z,19.5
2015-02-17T20:07:33.605Z,19.5
2015-02-17T20:07:51.956Z,19.5
2015-02-17T20:08:10.253Z,19.5
2015-02-17T20:08:28.049Z,19.5
2015-02-17T20:08:46.369Z,19.5
2015-02-17T20:09:04.697Z,19.5
2015-02-17T20:09:23.010Z,19.5
2015-02-17T20:09:41.322Z,19.5
2015-02-17T20:09:59.656Z,19.5
2015-02-17T20:10:17.984Z,19.5
2015-02-17T20:10:36.281Z,19.5
2015-02-17T20:10:54.614Z,19.5
2015-02-17T20:11:12.927Z,19.5
2015-02-17T20:11:31.255Z,19.5
2015-02-17T20:11:49.567Z,19.5
2015-02-17T20:12:07.900Z,19.5
2015-02-17T20:12:26.212Z,19.5
2015-02-17T20:12:44.525Z,19.5
2015-02-17T20:13:02.872Z,19.5
2015-02-17T20:13:21.169Z,19.5
2015-02-17T20:13:39.497Z,19.5
2015-02-17T20:13:57.810Z,19.5
2015-02-17T20:14:16.267Z,19.5
2015-02-17T20:14:34.579Z,19.5
2015-02-17T20:14:52.908Z,19.5
2015-02-17T20:15:11.224Z,19.5
2015-02-17T20:15:29.552Z,19.5
2015-02-17T20:15:47.865Z,19.5